.
WxDataArchive / Data Records for 2013-11-17
2013-11-16 November 2013 2013-11-18

Data Records for Sunday, 17 November 2013

Time	Temp	Chill	HIndex	Humid	Dewpt	 Wind 	HiWind	WindDir	Rain 	Barom 
-----	----	-----	------	-----	-----	------	------	-------	-----	----- 
00:00	57.5	57.5	57.5	89	54.3	1	5	90	0.01	29.773 
00:05	57.5	57.5	57.5	90	54.6	1	4	90	0.00	29.773 
00:10	57.3	57.3	57.3	90	54.4	1	4	68	0.00	29.773 
00:15	57.3	57.3	57.3	91	54.7	2	5	90	0.00	29.762 
00:20	57.3	57.3	57.3	91	54.7	1	3	112	0.00	29.762 
00:25	57.3	57.3	57.3	91	54.7	2	5	112	0.00	29.762 
00:30	57.3	57.3	57.3	91	54.7	1	4	90	0.00	29.760 
00:35	57.3	57.3	57.3	91	54.7	1	6	68	0.00	29.760 
00:40	57.3	57.3	57.3	91	54.7	2	5	90	0.00	29.760 
00:45	57.3	57.3	57.3	91	54.7	0	2	90	0.00	29.760 
00:50	57.3	57.3	57.3	92	55.0	2	9	90	0.00	29.760 
00:55	57.5	57.5	57.5	92	55.2	2	5	90	0.02	29.760 
01:00	57.5	57.5	57.5	92	55.2	2	5	90	0.02	29.744 
01:05	57.5	57.5	57.5	92	55.2	1	6	90	0.00	29.744 
01:10	57.5	57.5	57.5	92	55.2	2	6	90	0.00	29.744 
01:15	57.5	57.5	57.5	92	55.2	2	5	90	0.00	29.731 
01:20	57.5	57.5	57.5	93	55.5	1	9	90	0.00	29.731 
01:25	57.5	57.5	57.5	93	55.5	1	7	90	0.00	29.731 
01:30	57.5	57.5	57.5	93	55.5	1	5	68	0.00	29.726 
01:35	57.6	57.6	57.6	93	55.6	1	4	90	0.00	29.726 
01:40	57.6	57.6	57.6	93	55.6	2	7	90	0.00	29.726 
01:45	57.8	57.8	57.8	93	55.8	1	5	68	0.00	29.713 
01:50	58.0	58.0	58.0	93	56.0	2	5	90	0.00	29.713 
01:55	58.0	58.0	58.0	93	56.0	1	4	68	0.00	29.713 
02:00	58.1	58.1	58.1	93	56.1	1	4	68	0.00	29.710 
02:05	58.1	58.1	58.1	93	56.1	1	4	68	0.00	29.710 
02:10	58.1	58.1	58.1	93	56.1	0	3	270	0.00	29.710 
02:15	58.3	58.3	58.3	93	56.3	2	6	90	0.00	29.710 
02:20	58.3	58.3	58.3	93	56.3	2	5	0	0.02	29.710 
02:25	58.4	58.4	58.4	93	56.4	1	4	112	0.02	29.710 
02:30	58.4	58.4	58.4	93	56.4	3	7	90	0.00	29.702 
02:35	58.4	58.4	58.4	93	56.4	2	6	112	0.00	29.702 
02:40	58.4	58.4	58.4	93	56.4	2	7	112	0.00	29.702 
02:45	58.4	58.4	58.4	93	56.4	2	7	90	0.00	29.697 
02:50	58.6	58.6	58.6	93	56.6	2	6	90	0.00	29.697 
02:55	58.6	58.6	58.6	93	56.6	3	9	90	0.00	29.697 
03:00	58.7	58.7	58.7	93	56.7	3	11	90	0.00	29.689 
03:05	58.7	58.7	58.7	93	56.7	2	11	90	0.00	29.689 
03:10	58.7	58.7	58.7	93	56.7	1	7	90	0.00	29.689 
03:15	58.7	58.7	58.7	93	56.7	1	6	45	0.00	29.693 
03:20	58.7	58.7	58.7	93	56.7	2	11	45	0.00	29.693 
03:25	58.9	58.9	58.9	93	56.9	1	4	248	0.00	29.693 
03:30	58.9	58.9	58.9	93	56.9	1	4	248	0.00	29.679 
03:35	59.0	59.0	59.0	93	57.0	1	7	135	0.00	29.679 
03:40	59.0	59.0	59.0	93	57.0	2	5	22	0.00	29.679 
03:45	59.0	59.0	59.0	93	57.0	2	10	292	0.00	29.661 
03:50	59.2	59.2	59.2	92	56.9	1	5	0	0.00	29.661 
03:55	59.2	59.2	59.2	92	56.9	1	9	248	0.00	29.661 
04:00	59.2	59.2	59.2	92	56.9	1	10	248	0.00	29.668 
04:05	59.2	59.2	59.2	92	56.9	2	6	292	0.00	29.668 
04:10	59.2	59.2	59.2	92	56.9	1	5	225	0.00	29.668 
04:15	59.2	59.2	59.2	91	56.6	1	4	45	0.00	29.663 
04:20	59.2	59.2	59.2	91	56.6	1	4	338	0.00	29.663 
04:25	59.2	59.2	59.2	91	56.6	2	9	68	0.00	29.663 
04:30	59.2	59.2	59.2	90	56.3	1	4	292	0.00	29.664 
04:35	59.0	59.0	59.0	90	56.1	1	6	0	0.00	29.664 
04:40	59.0	59.0	59.0	89	55.8	1	6	248	0.00	29.664 
04:45	58.9	58.9	58.9	89	55.7	1	5	270	0.00	29.667 
04:50	58.7	58.7	58.7	88	55.2	1	3	68	0.00	29.667 
04:55	58.6	58.6	58.6	88	55.1	1	7	45	0.00	29.667 
05:00	58.6	58.6	58.6	88	55.1	1	4	68	0.00	29.663 
05:05	58.4	58.4	58.4	88	54.9	0	4	248	0.00	29.663 
05:10	58.6	58.6	58.6	88	55.1	0	2	248	0.01	29.663 
05:15	58.6	58.6	58.6	88	55.1	1	4	112	0.00	29.666 
05:20	58.6	58.6	58.6	88	55.1	1	6	90	0.00	29.666 
05:25	58.6	58.6	58.6	88	55.1	1	5	68	0.00	29.666 
05:30	58.4	58.4	58.4	88	54.9	1	5	90	0.00	29.669 
05:35	58.3	58.3	58.3	88	54.8	1	4	315	0.00	29.669 
05:40	58.1	58.1	58.1	88	54.6	0	2	270	0.01	29.669 
05:45	58.0	58.0	58.0	89	54.8	0	2	270	0.01	29.670 
05:50	57.8	57.8	57.8	89	54.6	0	3	315	0.00	29.670 
05:55	57.8	57.8	57.8	89	54.6	1	4	68	0.00	29.670 
06:00	57.8	57.8	57.8	89	54.6	1	7	68	0.00	29.669 
06:05	57.8	57.8	57.8	89	54.6	1	5	68	0.00	29.669 
06:10	57.8	57.8	57.8	89	54.6	1	4	112	0.00	29.669 
06:15	57.8	57.8	57.8	89	54.6	1	5	90	0.00	29.662 
06:20	57.6	57.6	57.6	89	54.4	2	6	112	0.00	29.662 
06:25	57.6	57.6	57.6	89	54.4	2	6	112	0.00	29.662 
06:30	57.8	57.8	57.8	89	54.6	2	7	90	0.00	29.653 
06:35	58.0	58.0	58.0	89	54.8	2	7	90	0.00	29.653 
06:40	58.0	58.0	58.0	89	54.8	2	7	68	0.00	29.653 
06:45	58.0	58.0	58.0	90	55.1	2	7	112	0.00	29.647 
06:50	58.0	58.0	58.0	90	55.1	3	11	90	0.00	29.647 
06:55	58.0	58.0	58.0	90	55.1	1	5	338	0.00	29.647 
07:00	58.0	58.0	58.0	91	55.4	1	6	112	0.00	29.655 
07:05	58.0	58.0	58.0	91	55.4	1	4	112	0.00	29.655 
07:10	58.0	58.0	58.0	91	55.4	1	5	90	0.00	29.655 
07:15	58.0	58.0	58.0	91	55.4	1	5	68	0.00	29.653 
07:20	58.0	58.0	58.0	91	55.4	2	6	90	0.00	29.653 
07:25	58.0	58.0	58.0	91	55.4	1	4	90	0.00	29.653 
07:30	58.0	58.0	58.0	95	56.6	3	6	68	0.00	29.645 
07:35	58.1	58.1	58.1	91	55.5	2	7	68	0.00	29.645 
07:40	58.1	58.1	58.1	91	55.5	3	10	90	0.00	29.645 
07:45	58.1	58.1	58.1	91	55.5	2	6	68	0.00	29.629 
07:50	58.1	58.1	58.1	91	55.5	3	9	90	0.00	29.629 
07:55	58.1	58.1	58.1	91	55.5	3	7	90	0.00	29.629 
08:00	58.0	58.0	58.0	91	55.4	1	6	68	0.00	29.633 
08:05	58.1	58.1	58.1	91	55.5	1	5	112	0.00	29.633 
08:10	58.1	58.1	58.1	91	55.5	1	3	112	0.00	29.633 
08:15	58.3	58.3	58.3	91	55.7	2	9	90	0.00	29.630 
08:20	58.6	58.6	58.6	90	55.7	1	4	45	0.00	29.630 
08:25	58.7	58.7	58.7	90	55.8	2	7	45	0.00	29.630 
08:30	59.2	59.2	59.2	90	56.3	2	8	90	0.00	29.629 
08:35	59.6	59.6	59.6	89	56.4	2	9	112	0.00	29.629 
08:40	59.9	59.9	59.9	88	56.3	2	12	90	0.00	29.629 
08:45	60.1	60.1	60.1	88	56.5	2	5	112	0.01	29.630 
08:50	59.8	59.8	59.8	89	56.5	3	9	90	0.07	29.630 
08:55	59.5	59.5	59.5	90	56.6	3	13	90	0.01	29.630 
09:00	59.3	59.3	59.3	90	56.4	3	9	90	0.01	29.627 
09:05	59.2	59.2	59.2	91	56.6	2	6	112	0.00	29.627 
09:10	59.2	59.2	59.2	91	56.6	1	4	68	0.00	29.627 
09:15	59.2	59.2	59.2	92	56.9	3	7	90	0.00	29.628 
09:20	59.2	59.2	59.2	92	56.9	2	5	90	0.00	29.628 
09:25	59.0	59.0	59.0	92	56.7	2	5	90	0.00	29.628 
09:30	59.0	59.0	59.0	92	56.7	1	5	90	0.00	29.627 
09:35	59.2	59.2	59.2	92	56.9	2	9	112	0.00	29.627 
09:40	59.3	59.3	59.3	92	57.0	2	9	112	0.00	29.627 
09:45	59.3	59.3	59.3	91	56.7	1	6	112	0.00	29.621 
09:50	59.5	59.5	59.5	91	56.9	2	5	68	0.01	29.621 
09:55	59.6	59.6	59.6	91	57.0	2	6	112	0.00	29.621 
10:00	59.8	59.8	59.8	91	57.2	2	5	68	0.00	29.614 
10:05	59.9	59.9	59.9	91	57.3	1	4	68	0.00	29.614 
10:10	60.1	60.1	60.1	90	57.2	2	5	90	0.00	29.614 
10:15	60.1	60.1	60.1	90	57.2	2	5	22	0.00	29.604 
10:20	60.4	60.4	60.4	89	57.1	2	11	68	0.00	29.604 
10:25	60.5	60.5	60.5	89	57.2	3	9	90	0.00	29.604 
10:30	60.7	60.7	60.7	88	57.1	1	5	68	0.00	29.597 
10:35	60.9	60.9	60.9	88	57.3	2	7	68	0.00	29.597 
10:40	61.0	61.0	61.0	88	57.4	1	6	292	0.00	29.597 
10:45	61.2	61.2	61.2	87	57.3	2	5	90	0.00	29.587 
10:50	61.6	61.6	61.6	88	58.0	2	6	112	0.00	29.587 
10:55	62.3	62.3	62.3	86	58.1	2	8	338	0.00	29.587 
11:00	62.3	62.3	62.3	85	57.7	2	7	45	0.00	29.586 
11:05	62.3	62.3	62.3	85	57.7	2	7	90	0.00	29.586 
11:10	62.3	62.3	62.3	84	57.4	2	9	248	0.00	29.586 
11:15	62.4	62.4	62.4	84	57.5	2	8	90	0.00	29.578 
11:20	62.6	62.6	62.6	84	57.7	3	13	45	0.00	29.578 
11:25	62.7	62.7	62.7	83	57.5	3	10	90	0.00	29.578 
11:30	62.7	62.7	62.7	83	57.5	3	11	112	0.00	29.562 
11:35	62.7	62.7	62.7	83	57.5	4	14	90	0.00	29.562 
11:40	62.7	62.7	62.7	83	57.5	5	11	68	0.00	29.562 
11:45	62.7	62.7	62.7	83	57.5	3	13	45	0.00	29.552 
11:50	62.6	62.6	62.6	84	57.7	2	9	68	0.02	29.552 
11:55	62.1	62.1	62.1	86	57.9	3	9	68	0.06	29.552 
12:00	61.8	61.8	61.8	88	58.2	4	10	90	0.01	29.546 
12:05	61.6	61.6	61.6	89	58.3	2	8	112	0.00	29.546 
12:10	61.8	61.8	61.8	89	58.5	2	10	90	0.00	29.546 
12:15	61.8	61.8	61.8	89	58.5	2	5	45	0.00	29.530 
12:20	61.8	61.8	61.8	89	58.5	2	7	68	0.00	29.530 
12:25	62.0	62.0	62.0	89	58.7	2	7	90	0.00	29.530 
12:30	62.3	62.3	62.3	89	59.0	3	6	90	0.00	29.498 
12:35	62.6	62.6	62.6	88	59.0	3	12	68	0.00	29.498 
12:40	62.9	62.9	62.9	87	59.0	3	10	90	0.00	29.498 
12:45	63.2	63.2	63.2	86	58.9	3	6	112	0.00	29.471 
12:50	63.5	63.5	63.5	85	58.9	3	14	45	0.00	29.471 
12:55	63.7	63.7	63.7	85	59.1	2	5	45	0.00	29.471 
13:00	63.7	63.7	63.7	84	58.8	3	11	90	0.00	29.475 
13:05	63.7	63.7	63.7	84	58.8	3	7	90	0.00	29.475 
13:10	63.9	63.9	63.9	84	59.0	3	7	90	0.00	29.475 
13:15	63.9	63.9	63.9	83	58.6	3	10	90	0.00	29.454 
13:20	64.0	64.0	64.0	82	58.4	3	11	90	0.00	29.454 
13:25	64.0	64.0	64.0	82	58.4	3	10	90	0.00	29.454 
13:30	64.2	64.2	64.2	82	58.6	2	9	90	0.00	29.431 
13:35	64.3	64.3	64.3	81	58.3	3	13	68	0.00	29.431 
13:40	64.5	64.5	64.5	81	58.5	4	11	90	0.00	29.431 
13:45	64.5	64.5	64.5	81	58.5	3	10	90	0.00	29.425 
13:50	64.5	64.5	64.5	81	58.5	2	7	68	0.00	29.425 
13:55	64.5	64.5	64.5	81	58.5	3	12	270	0.00	29.425 
14:00	64.5	64.5	64.5	81	58.5	2	12	68	0.00	29.418 
14:05	64.5	64.5	64.5	81	58.5	2	9	90	0.00	29.418 
14:10	64.5	64.5	64.5	81	58.5	3	11	68	0.00	29.418 
14:15	64.7	64.7	64.7	81	58.7	4	16	68	0.00	29.402 
14:20	64.7	64.7	64.7	81	58.7	2	9	90	0.00	29.402 
14:25	64.7	64.7	64.7	81	58.7	3	12	248	0.00	29.402 
14:30	64.7	64.7	64.7	82	59.1	2	7	270	0.00	29.387 
14:35	64.5	64.5	64.5	82	58.9	3	10	90	0.00	29.387 
14:40	64.5	64.5	64.5	82	58.9	2	8	248	0.00	29.387 
14:45	64.5	64.5	64.5	82	58.9	3	7	0	0.00	29.382 
14:50	64.3	64.3	64.3	82	58.7	3	11	90	0.00	29.382 
14:55	64.5	64.5	64.5	81	58.5	4	15	90	0.00	29.382 
15:00	64.5	64.5	64.5	81	58.5	3	11	90	0.00	29.367 
15:05	64.5	64.5	64.5	82	58.9	4	12	112	0.00	29.367 
15:10	64.5	64.5	64.5	82	58.9	4	12	68	0.00	29.367 
15:15	64.3	64.3	64.3	83	59.0	4	13	90	0.00	29.352 
15:20	64.2	64.2	64.2	83	58.9	3	11	90	0.00	29.352 
15:25	64.2	64.2	64.2	84	59.3	3	10	90	0.00	29.352 
15:30	64.0	64.0	64.0	84	59.1	5	15	90	0.00	29.338 
15:35	63.9	63.9	63.9	85	59.3	3	11	45	0.00	29.338 
15:40	63.9	63.9	63.9	85	59.3	3	10	90	0.00	29.338 
15:45	63.9	63.9	63.9	85	59.3	3	10	90	0.00	29.324 
15:50	63.7	63.7	63.7	86	59.4	3	11	68	0.00	29.324 
15:55	63.7	63.7	63.7	87	59.8	3	12	112	0.01	29.324 
16:00	63.5	63.5	63.5	87	59.6	2	7	90	0.00	29.314 
16:05	63.4	63.4	63.4	88	59.8	2	7	248	0.04	29.314 
16:10	63.1	63.1	63.1	89	59.8	1	4	68	0.01	29.314 
16:15	62.9	62.9	62.9	90	59.9	1	5	68	0.01	29.303 
16:20	62.9	62.9	62.9	90	59.9	2	7	90	0.05	29.303 
16:25	62.7	62.7	62.7	91	60.0	3	10	248	0.15	29.303 
16:30	62.4	62.4	62.4	92	60.0	4	11	270	0.14	29.325 
16:35	61.5	61.5	61.5	90	58.5	2	10	248	0.00	29.325 
16:40	60.2	60.2	60.2	90	57.3	3	10	248	0.00	29.325 
16:45	59.8	59.8	59.8	89	56.5	3	9	248	0.01	29.323 
16:50	59.2	59.2	59.2	88	55.6	5	15	270	0.02	29.323 
16:55	58.6	58.6	58.6	88	55.1	3	11	248	0.01	29.323 
17:00	57.8	57.8	57.8	88	54.3	2	7	248	0.00	29.321 
17:05	57.2	57.2	57.2	89	54.0	1	4	270	0.00	29.321 
17:10	56.7	56.7	56.7	90	53.8	1	5	248	0.01	29.321 
17:15	56.6	56.6	56.6	90	53.7	1	7	248	0.00	29.322 
17:20	56.7	56.7	56.7	91	54.1	3	9	248	0.00	29.322 
17:25	57.0	57.0	57.0	91	54.4	3	10	248	0.00	29.322 
17:30	57.3	57.3	57.3	91	54.7	4	11	248	0.00	29.329 
17:35	57.6	57.6	57.6	91	55.0	2	9	248	0.00	29.329 
17:40	58.1	58.1	58.1	90	55.2	3	9	248	0.00	29.329 
17:45	58.3	58.3	58.3	89	55.1	4	12	248	0.00	29.346 
17:50	58.7	58.7	58.7	86	54.5	5	13	248	0.00	29.346 
17:55	59.0	59.0	59.0	83	53.8	4	9	248	0.00	29.346 
18:00	59.0	59.0	59.0	78	52.1	5	13	248	0.00	29.362 
18:05	59.0	59.0	59.0	76	51.4	4	11	270	0.00	29.362 
18:10	59.0	59.0	59.0	73	50.4	6	14	248	0.00	29.362 
18:15	58.9	58.9	58.9	72	49.9	5	12	270	0.00	29.371 
18:20	58.7	58.7	58.7	71	49.3	5	12	270	0.00	29.371 
18:25	58.3	58.3	58.3	64	46.2	7	14	270	0.00	29.371 
18:30	58.0	58.0	58.0	64	45.9	6	18	248	0.00	29.384 
18:35	57.2	57.2	57.2	62	44.3	6	14	270	0.00	29.384 
18:40	56.3	56.3	56.3	62	43.4	8	17	270	0.00	29.384 
18:45	55.6	55.6	55.6	65	44.0	6	15	270	0.00	29.410 
18:50	55.1	55.1	55.1	65	43.5	8	15	270	0.00	29.410 
18:55	54.8	54.8	54.8	65	43.3	7	15	270	0.00	29.410 
19:00	54.4	54.4	54.4	65	42.9	6	15	270	0.00	29.422 
19:05	54.2	54.2	54.2	66	43.1	6	16	270	0.00	29.422 
19:10	53.9	53.9	53.9	67	43.2	6	12	270	0.00	29.422 
19:15	53.8	53.8	53.8	69	43.9	5	12	248	0.00	29.437 
19:20	53.5	53.5	53.5	70	44.0	6	13	270	0.00	29.437 
19:25	53.3	53.3	53.3	69	43.4	8	15	270	0.00	29.437 
19:30	53.1	53.1	53.1	70	43.6	6	14	248	0.00	29.460 
19:35	52.8	52.8	52.8	70	43.3	5	13	270	0.00	29.460 
19:40	52.6	52.6	52.6	70	43.1	7	15	270	0.00	29.460 
19:45	52.3	52.3	52.3	69	42.4	7	13	270	0.00	29.469 
19:50	52.2	52.2	52.2	70	42.7	6	12	270	0.00	29.469 
19:55	52.0	52.0	52.0	71	42.9	6	17	270	0.00	29.469 
20:00	51.9	51.9	51.9	71	42.8	7	17	270	0.00	29.485 
20:05	51.7	51.7	51.7	71	42.6	7	15	270	0.00	29.485 
20:10	51.6	51.6	51.6	71	42.5	5	12	270	0.00	29.485 
20:15	51.3	51.3	51.3	72	42.6	4	10	270	0.00	29.496 
20:20	51.1	51.1	51.1	71	42.0	6	13	270	0.00	29.496 
20:25	51.1	51.1	51.1	70	41.7	6	14	270	0.00	29.496 
20:30	51.1	51.1	51.1	70	41.7	6	16	270	0.00	29.509 
20:35	51.0	51.0	51.0	70	41.6	5	10	270	0.00	29.509 
20:40	51.0	51.0	51.0	69	41.2	7	17	270	0.00	29.509 
20:45	50.8	50.8	50.8	69	41.0	5	12	270	0.00	29.519 
20:50	50.7	50.7	50.7	67	40.1	6	15	270	0.00	29.519 
20:55	50.4	50.4	50.4	66	39.5	5	12	270	0.00	29.519 
21:00	50.2	50.2	50.2	68	40.1	6	11	270	0.00	29.531 
21:05	50.1	50.1	50.1	70	40.7	6	13	270	0.00	29.531 
21:10	49.9	47.1	49.9	71	40.9	7	13	270	0.00	29.531 
21:15	49.6	47.2	49.6	71	40.6	6	14	270	0.00	29.540 
21:20	49.4	47.0	49.4	72	40.8	6	14	270	0.00	29.540 
21:25	49.1	46.6	49.1	72	40.5	6	12	270	0.00	29.540 
21:30	48.9	46.4	48.9	72	40.3	6	18	270	0.00	29.555 
21:35	48.9	46.4	48.9	71	39.9	6	13	270	0.00	29.555 
21:40	48.9	46.4	48.9	71	39.9	6	12	270	0.00	29.555 
21:45	48.9	46.9	48.9	72	40.3	5	10	270	0.00	29.565 
21:50	48.8	46.8	48.8	72	40.2	5	10	270	0.00	29.565 
21:55	48.8	46.8	48.8	73	40.5	5	13	270	0.00	29.565 
22:00	48.6	47.3	48.6	73	40.3	4	10	270	0.00	29.578 
22:05	48.5	47.1	48.5	73	40.2	4	9	270	0.00	29.578 
22:10	48.3	48.3	48.3	74	40.4	3	11	270	0.00	29.578 
22:15	48.2	46.8	48.2	74	40.3	4	7	270	0.00	29.587 
22:20	48.2	46.8	48.2	74	40.3	4	10	248	0.00	29.587 
22:25	48.2	46.8	48.2	74	40.3	4	10	248	0.00	29.587 
22:30	48.0	46.6	48.0	74	40.1	4	11	248	0.00	29.595 
22:35	48.0	46.6	48.0	74	40.1	4	10	248	0.00	29.595 
22:40	48.2	46.8	48.2	74	40.3	4	10	248	0.00	29.595 
22:45	48.2	46.8	48.2	73	40.0	4	10	248	0.00	29.604 
22:50	48.2	46.8	48.2	73	40.0	4	10	270	0.00	29.604 
22:55	48.2	48.2	48.2	73	40.0	3	6	270	0.00	29.604 
23:00	48.2	46.8	48.2	73	40.0	4	9	270	0.00	29.611 
23:05	48.2	48.2	48.2	73	40.0	3	7	248	0.00	29.611 
23:10	48.0	48.0	48.0	73	39.8	3	5	248	0.00	29.611 
23:15	48.0	46.6	48.0	73	39.8	4	7	270	0.00	29.620 
23:20	48.0	48.0	48.0	73	39.8	3	6	270	0.00	29.620 
23:25	48.0	48.0	48.0	73	39.8	3	7	248	0.00	29.620 
23:30	48.0	48.0	48.0	72	39.4	3	6	270	0.00	29.633 
23:35	48.0	46.6	48.0	70	38.7	4	7	270	0.00	29.633 
23:40	47.9	47.9	47.9	69	38.2	3	7	248	0.00	29.633 
23:45	47.9	46.4	47.9	69	38.2	4	12	270	0.00	29.638 
23:50	47.7	46.2	47.7	68	37.7	4	11	248	0.00	29.638 
23:55	47.6	45.4	47.6	68	37.6	5	11	270	0.00	29.638 

CoCoRaHS
IN-AL-39
A2 Web Hosting
Creative Commons License
GoDaddy
search engine by freefind advanced

loaded 2018-11-13 23:42:37 • last modified 2010-11-18 10:43:29
Privacy PolicyDisclaimer
• wx.awcolley.com is powered by PmWiki v.2002016 •
• all content (unless otherwise noted) © 2018 A W Colley